sensor_id;sensor_type;location;lat;lon;timestamp;P1;durP1;ratioP1;P2;durP2;ratioP2
55368;SDS011;41247;49.736;8.752;2023-02-23T00:01:56;66.50;;;35.13;;
55368;SDS011;41247;49.736;8.752;2023-02-23T00:05:38;63.60;;;32.88;;
55368;SDS011;41247;49.736;8.752;2023-02-23T00:09:19;73.15;;;34.63;;
55368;SDS011;41247;49.736;8.752;2023-02-23T00:13:00;70.35;;;35.33;;
55368;SDS011;41247;49.736;8.752;2023-02-23T00:16:40;67.50;;;33.70;;
55368;SDS011;41247;49.736;8.752;2023-02-23T00:20:21;77.78;;;35.90;;
55368;SDS011;41247;49.736;8.752;2023-02-23T00:24:04;66.03;;;34.97;;
55368;SDS011;41247;49.736;8.752;2023-02-23T00:27:47;77.53;;;37.53;;
55368;SDS011;41247;49.736;8.752;2023-02-23T00:31:28;83.90;;;39.47;;
55368;SDS011;41247;49.736;8.752;2023-02-23T00:35:09;78.38;;;38.10;;
55368;SDS011;41247;49.736;8.752;2023-02-23T00:38:53;88.13;;;42.08;;
55368;SDS011;41247;49.736;8.752;2023-02-23T00:42:37;90.93;;;40.35;;
55368;SDS011;41247;49.736;8.752;2023-02-23T00:46:18;86.40;;;42.05;;
55368;SDS011;41247;49.736;8.752;2023-02-23T00:50:00;85.00;;;41.33;;
55368;SDS011;41247;49.736;8.752;2023-02-23T00:53:40;83.10;;;41.08;;
55368;SDS011;41247;49.736;8.752;2023-02-23T00:57:21;82.68;;;41.40;;
55368;SDS011;41247;49.736;8.752;2023-02-23T01:01:06;87.45;;;42.25;;
55368;SDS011;41247;49.736;8.752;2023-02-23T01:04:52;87.65;;;41.83;;
55368;SDS011;41247;49.736;8.752;2023-02-23T01:08:33;88.40;;;43.35;;
55368;SDS011;41247;49.736;8.752;2023-02-23T01:12:16;90.78;;;44.38;;
55368;SDS011;41247;49.736;8.752;2023-02-23T01:15:57;91.65;;;43.38;;
55368;SDS011;41247;49.736;8.752;2023-02-23T01:19:37;93.53;;;43.15;;
55368;SDS011;41247;49.736;8.752;2023-02-23T01:23:18;90.75;;;41.75;;
55368;SDS011;41247;49.736;8.752;2023-02-23T01:26:59;108.15;;;44.92;;
55368;SDS011;41247;49.736;8.752;2023-02-23T01:30:39;101.35;;;45.53;;
55368;SDS011;41247;49.736;8.752;2023-02-23T01:34:20;105.20;;;46.70;;
55368;SDS011;41247;49.736;8.752;2023-02-23T01:38:01;113.55;;;47.47;;
55368;SDS011;41247;49.736;8.752;2023-02-23T01:41:41;113.63;;;47.40;;
55368;SDS011;41247;49.736;8.752;2023-02-23T01:49:17;101.30;;;44.13;;
55368;SDS011;41247;49.736;8.752;2023-02-23T01:53:02;84.35;;;39.20;;
55368;SDS011;41247;49.736;8.752;2023-02-23T01:56:44;89.03;;;39.05;;
55368;SDS011;41247;49.736;8.752;2023-02-23T02:00:30;80.85;;;37.78;;
55368;SDS011;41247;49.736;8.752;2023-02-23T02:04:11;82.03;;;37.33;;
55368;SDS011;41247;49.736;8.752;2023-02-23T02:07:52;80.68;;;36.97;;
55368;SDS011;41247;49.736;8.752;2023-02-23T02:11:33;83.70;;;37.20;;
55368;SDS011;41247;49.736;8.752;2023-02-23T02:15:15;86.35;;;37.25;;
55368;SDS011;41247;49.736;8.752;2023-02-23T02:19:04;89.05;;;37.55;;
55368;SDS011;41247;49.736;8.752;2023-02-23T02:40:52;79.43;;;35.22;;
55368;SDS011;41247;49.736;8.752;2023-02-23T02:45:00;88.18;;;36.55;;
55368;SDS011;41247;49.736;8.752;2023-02-23T02:49:10;76.47;;;34.75;;
55368;SDS011;41247;49.736;8.752;2023-02-23T02:53:04;81.43;;;36.05;;
55368;SDS011;41247;49.736;8.752;2023-02-23T02:56:48;83.32;;;35.90;;
55368;SDS011;41247;49.736;8.752;2023-02-23T03:00:34;77.47;;;33.63;;
55368;SDS011;41247;49.736;8.752;2023-02-23T03:04:25;81.38;;;35.72;;
55368;SDS011;41247;49.736;8.752;2023-02-23T03:08:11;77.63;;;35.60;;
55368;SDS011;41247;49.736;8.752;2023-02-23T03:12:12;78.85;;;36.15;;
55368;SDS011;41247;49.736;8.752;2023-02-23T03:16:10;89.32;;;37.38;;
55368;SDS011;41247;49.736;8.752;2023-02-23T03:24:11;90.07;;;37.90;;
55368;SDS011;41247;49.736;8.752;2023-02-23T03:28:26;82.85;;;36.85;;
55368;SDS011;41247;49.736;8.752;2023-02-23T03:36:06;84.97;;;37.05;;
55368;SDS011;41247;49.736;8.752;2023-02-23T03:39:57;80.78;;;35.83;;
55368;SDS011;41247;49.736;8.752;2023-02-23T03:43:54;77.68;;;35.80;;
55368;SDS011;41247;49.736;8.752;2023-02-23T03:47:40;78.80;;;35.53;;
55368;SDS011;41247;49.736;8.752;2023-02-23T03:51:22;72.03;;;35.25;;
55368;SDS011;41247;49.736;8.752;2023-02-23T03:55:05;69.05;;;32.70;;
55368;SDS011;41247;49.736;8.752;2023-02-23T03:58:57;75.47;;;33.33;;
55368;SDS011;41247;49.736;8.752;2023-02-23T04:02:40;71.15;;;31.73;;
55368;SDS011;41247;49.736;8.752;2023-02-23T04:06:25;67.22;;;31.80;;
55368;SDS011;41247;49.736;8.752;2023-02-23T04:10:12;64.57;;;31.98;;
55368;SDS011;41247;49.736;8.752;2023-02-23T04:13:53;69.93;;;33.75;;
55368;SDS011;41247;49.736;8.752;2023-02-23T04:17:39;72.82;;;33.78;;
55368;SDS011;41247;49.736;8.752;2023-02-23T04:21:21;75.78;;;35.22;;
55368;SDS011;41247;49.736;8.752;2023-02-23T04:25:02;78.78;;;36.75;;
55368;SDS011;41247;49.736;8.752;2023-02-23T04:28:43;73.07;;;34.67;;
55368;SDS011;41247;49.736;8.752;2023-02-23T04:32:24;77.28;;;37.10;;
55368;SDS011;41247;49.736;8.752;2023-02-23T04:36:04;90.47;;;40.33;;
55368;SDS011;41247;49.736;8.752;2023-02-23T04:39:45;96.60;;;42.95;;
55368;SDS011;41247;49.736;8.752;2023-02-23T04:43:26;98.78;;;40.63;;
55368;SDS011;41247;49.736;8.752;2023-02-23T04:47:06;108.47;;;44.75;;
55368;SDS011;41247;49.736;8.752;2023-02-23T04:50:50;106.95;;;46.65;;
55368;SDS011;41247;49.736;8.752;2023-02-23T04:54:32;101.07;;;45.70;;
55368;SDS011;41247;49.736;8.752;2023-02-23T04:58:13;90.60;;;40.85;;
55368;SDS011;41247;49.736;8.752;2023-02-23T05:01:53;100.15;;;42.78;;
55368;SDS011;41247;49.736;8.752;2023-02-23T05:05:34;95.95;;;42.30;;
55368;SDS011;41247;49.736;8.752;2023-02-23T05:09:14;93.28;;;41.88;;
55368;SDS011;41247;49.736;8.752;2023-02-23T05:12:56;95.88;;;42.95;;
55368;SDS011;41247;49.736;8.752;2023-02-23T05:16:37;99.07;;;43.40;;
55368;SDS011;41247;49.736;8.752;2023-02-23T05:20:18;100.43;;;43.10;;
55368;SDS011;41247;49.736;8.752;2023-02-23T05:23:59;102.53;;;43.28;;
55368;SDS011;41247;49.736;8.752;2023-02-23T05:27:39;95.00;;;44.60;;
55368;SDS011;41247;49.736;8.752;2023-02-23T05:31:20;100.40;;;44.47;;
55368;SDS011;41247;49.736;8.752;2023-02-23T05:35:01;117.03;;;46.08;;
55368;SDS011;41247;49.736;8.752;2023-02-23T05:38:42;126.43;;;46.70;;
55368;SDS011;41247;49.736;8.752;2023-02-23T05:42:24;129.15;;;49.08;;
55368;SDS011;41247;49.736;8.752;2023-02-23T05:46:06;149.13;;;51.67;;
55368;SDS011;41247;49.736;8.752;2023-02-23T05:49:51;170.60;;;53.22;;
55368;SDS011;41247;49.736;8.752;2023-02-23T05:53:32;209.57;;;54.05;;
55368;SDS011;41247;49.736;8.752;2023-02-23T05:57:13;142.82;;;51.92;;
55368;SDS011;41247;49.736;8.752;2023-02-23T06:00:53;139.63;;;51.65;;
55368;SDS011;41247;49.736;8.752;2023-02-23T06:04:34;164.13;;;55.50;;
55368;SDS011;41247;49.736;8.752;2023-02-23T06:08:15;166.90;;;54.10;;
55368;SDS011;41247;49.736;8.752;2023-02-23T06:11:55;157.90;;;54.72;;
55368;SDS011;41247;49.736;8.752;2023-02-23T06:15:36;173.20;;;56.42;;
55368;SDS011;41247;49.736;8.752;2023-02-23T06:19:17;164.35;;;54.70;;
55368;SDS011;41247;49.736;8.752;2023-02-23T06:22:57;159.38;;;54.30;;
55368;SDS011;41247;49.736;8.752;2023-02-23T06:26:38;174.35;;;55.53;;
55368;SDS011;41247;49.736;8.752;2023-02-23T06:30:19;151.30;;;52.20;;
55368;SDS011;41247;49.736;8.752;2023-02-23T06:34:00;167.57;;;55.60;;
55368;SDS011;41247;49.736;8.752;2023-02-23T06:37:41;206.88;;;57.42;;
55368;SDS011;41247;49.736;8.752;2023-02-23T06:41:21;204.98;;;54.28;;
55368;SDS011;41247;49.736;8.752;2023-02-23T06:45:02;271.02;;;61.33;;
55368;SDS011;41247;49.736;8.752;2023-02-23T06:48:44;487.65;;;68.18;;
55368;SDS011;41247;49.736;8.752;2023-02-23T06:52:24;348.58;;;65.32;;
55368;SDS011;41247;49.736;8.752;2023-02-23T06:56:05;297.92;;;64.55;;
55368;SDS011;41247;49.736;8.752;2023-02-23T06:59:46;234.75;;;60.25;;
55368;SDS011;41247;49.736;8.752;2023-02-23T07:03:26;753.72;;;69.93;;
55368;SDS011;41247;49.736;8.752;2023-02-23T07:07:07;388.42;;;64.50;;
55368;SDS011;41247;49.736;8.752;2023-02-23T07:10:48;1112.53;;;81.93;;
55368;SDS011;41247;49.736;8.752;2023-02-23T07:14:29;567.58;;;70.30;;
55368;SDS011;41247;49.736;8.752;2023-02-23T07:18:09;344.75;;;62.20;;
55368;SDS011;41247;49.736;8.752;2023-02-23T07:21:50;220.77;;;57.83;;
55368;SDS011;41247;49.736;8.752;2023-02-23T07:25:31;225.60;;;58.22;;
55368;SDS011;41247;49.736;8.752;2023-02-23T07:29:12;258.95;;;59.40;;
55368;SDS011;41247;49.736;8.752;2023-02-23T07:32:52;193.98;;;54.28;;
55368;SDS011;41247;49.736;8.752;2023-02-23T07:36:33;185.07;;;52.88;;
55368;SDS011;41247;49.736;8.752;2023-02-23T07:40:14;159.15;;;50.83;;
55368;SDS011;41247;49.736;8.752;2023-02-23T07:43:56;147.50;;;50.22;;
55368;SDS011;41247;49.736;8.752;2023-02-23T07:47:38;145.98;;;48.38;;
55368;SDS011;41247;49.736;8.752;2023-02-23T07:51:19;140.40;;;46.95;;
55368;SDS011;41247;49.736;8.752;2023-02-23T07:54:59;140.35;;;45.40;;
55368;SDS011;41247;49.736;8.752;2023-02-23T07:58:40;117.07;;;42.47;;
55368;SDS011;41247;49.736;8.752;2023-02-23T08:02:23;106.15;;;41.00;;
55368;SDS011;41247;49.736;8.752;2023-02-23T08:06:04;100.57;;;39.33;;
55368;SDS011;41247;49.736;8.752;2023-02-23T08:09:46;100.97;;;39.65;;
55368;SDS011;41247;49.736;8.752;2023-02-23T08:13:28;107.97;;;41.05;;
55368;SDS011;41247;49.736;8.752;2023-02-23T08:17:09;112.22;;;41.45;;
55368;SDS011;41247;49.736;8.752;2023-02-23T08:20:56;107.53;;;41.25;;
55368;SDS011;41247;49.736;8.752;2023-02-23T08:24:41;99.88;;;39.28;;
55368;SDS011;41247;49.736;8.752;2023-02-23T08:28:21;98.50;;;40.25;;
55368;SDS011;41247;49.736;8.752;2023-02-23T08:32:02;106.22;;;42.55;;
55368;SDS011;41247;49.736;8.752;2023-02-23T08:35:44;98.15;;;40.40;;
55368;SDS011;41247;49.736;8.752;2023-02-23T08:39:24;98.70;;;40.53;;
55368;SDS011;41247;49.736;8.752;2023-02-23T08:43:05;96.65;;;39.20;;
55368;SDS011;41247;49.736;8.752;2023-02-23T08:46:45;87.88;;;37.78;;
55368;SDS011;41247;49.736;8.752;2023-02-23T08:50:26;106.47;;;42.40;;
55368;SDS011;41247;49.736;8.752;2023-02-23T08:54:07;111.28;;;43.72;;
55368;SDS011;41247;49.736;8.752;2023-02-23T08:57:47;129.35;;;46.40;;
55368;SDS011;41247;49.736;8.752;2023-02-23T09:01:28;119.88;;;45.38;;
55368;SDS011;41247;49.736;8.752;2023-02-23T09:05:09;264.05;;;50.92;;
55368;SDS011;41247;49.736;8.752;2023-02-23T09:08:50;298.02;;;51.10;;
55368;SDS011;41247;49.736;8.752;2023-02-23T09:12:32;368.38;;;52.72;;
55368;SDS011;41247;49.736;8.752;2023-02-23T09:16:12;346.10;;;51.03;;
55368;SDS011;41247;49.736;8.752;2023-02-23T09:19:53;289.13;;;52.47;;
55368;SDS011;41247;49.736;8.752;2023-02-23T09:23:34;215.35;;;49.38;;
55368;SDS011;41247;49.736;8.752;2023-02-23T09:27:15;217.45;;;49.90;;
55368;SDS011;41247;49.736;8.752;2023-02-23T09:30:57;145.23;;;46.55;;
55368;SDS011;41247;49.736;8.752;2023-02-23T09:34:37;115.25;;;44.17;;
55368;SDS011;41247;49.736;8.752;2023-02-23T09:38:18;123.65;;;45.63;;
55368;SDS011;41247;49.736;8.752;2023-02-23T09:42:01;124.15;;;45.10;;
55368;SDS011;41247;49.736;8.752;2023-02-23T09:46:07;115.57;;;45.85;;
55368;SDS011;41247;49.736;8.752;2023-02-23T09:50:02;137.05;;;48.38;;
55368;SDS011;41247;49.736;8.752;2023-02-23T09:53:58;114.22;;;43.95;;
55368;SDS011;41247;49.736;8.752;2023-02-23T09:57:42;93.38;;;40.80;;
55368;SDS011;41247;49.736;8.752;2023-02-23T10:01:40;90.57;;;39.33;;
55368;SDS011;41247;49.736;8.752;2023-02-23T10:05:40;85.28;;;37.33;;
55368;SDS011;41247;49.736;8.752;2023-02-23T10:18:03;71.27;;;31.53;;
55368;SDS011;41247;49.736;8.752;2023-02-23T10:22:33;63.20;;;31.55;;
55368;SDS011;41247;49.736;8.752;2023-02-23T10:26:20;58.72;;;28.38;;
55368;SDS011;41247;49.736;8.752;2023-02-23T10:30:11;53.83;;;27.85;;
55368;SDS011;41247;49.736;8.752;2023-02-23T10:34:12;55.03;;;28.95;;
55368;SDS011;41247;49.736;8.752;2023-02-23T10:37:55;54.60;;;28.75;;
55368;SDS011;41247;49.736;8.752;2023-02-23T10:41:37;56.38;;;29.70;;
55368;SDS011;41247;49.736;8.752;2023-02-23T10:45:20;54.47;;;28.05;;
55368;SDS011;41247;49.736;8.752;2023-02-23T10:49:03;59.45;;;29.35;;
55368;SDS011;41247;49.736;8.752;2023-02-23T10:52:45;57.15;;;29.15;;
55368;SDS011;41247;49.736;8.752;2023-02-23T10:56:28;59.17;;;28.75;;
55368;SDS011;41247;49.736;8.752;2023-02-23T11:03:55;47.95;;;25.98;;
55368;SDS011;41247;49.736;8.752;2023-02-23T11:07:36;54.08;;;26.90;;
55368;SDS011;41247;49.736;8.752;2023-02-23T11:11:19;46.35;;;26.23;;
55368;SDS011;41247;49.736;8.752;2023-02-23T11:19:03;52.25;;;26.23;;
55368;SDS011;41247;49.736;8.752;2023-02-23T11:22:49;45.95;;;25.90;;
55368;SDS011;41247;49.736;8.752;2023-02-23T11:26:31;47.40;;;26.13;;
55368;SDS011;41247;49.736;8.752;2023-02-23T11:30:27;41.97;;;24.30;;
55368;SDS011;41247;49.736;8.752;2023-02-23T11:34:19;39.10;;;20.45;;
55368;SDS011;41247;49.736;8.752;2023-02-23T11:38:14;32.38;;;19.05;;
55368;SDS011;41247;49.736;8.752;2023-02-23T11:42:12;30.65;;;17.90;;
55368;SDS011;41247;49.736;8.752;2023-02-23T11:45:59;23.63;;;14.55;;
55368;SDS011;41247;49.736;8.752;2023-02-23T11:49:42;17.60;;;11.50;;
55368;SDS011;41247;49.736;8.752;2023-02-23T11:53:30;15.60;;;9.05;;
55368;SDS011;41247;49.736;8.752;2023-02-23T11:57:20;15.57;;;9.38;;
55368;SDS011;41247;49.736;8.752;2023-02-23T12:01:10;15.38;;;9.18;;
55368;SDS011;41247;49.736;8.752;2023-02-23T12:08:49;16.63;;;10.20;;
55368;SDS011;41247;49.736;8.752;2023-02-23T12:20:22;16.38;;;9.52;;
55368;SDS011;41247;49.736;8.752;2023-02-23T12:24:16;17.10;;;10.48;;
55368;SDS011;41247;49.736;8.752;2023-02-23T12:28:19;18.65;;;10.75;;
55368;SDS011;41247;49.736;8.752;2023-02-23T12:32:13;19.52;;;11.48;;
55368;SDS011;41247;49.736;8.752;2023-02-23T12:44:12;22.27;;;13.48;;
55368;SDS011;41247;49.736;8.752;2023-02-23T12:52:16;21.60;;;12.68;;
55368;SDS011;41247;49.736;8.752;2023-02-23T13:09:05;19.23;;;10.65;;
55368;SDS011;41247;49.736;8.752;2023-02-23T13:21:57;16.38;;;8.30;;
55368;SDS011;41247;49.736;8.752;2023-02-23T13:29:54;13.90;;;7.32;;
55368;SDS011;41247;49.736;8.752;2023-02-23T13:33:36;13.70;;;6.88;;
55368;SDS011;41247;49.736;8.752;2023-02-23T13:37:19;16.70;;;6.80;;
55368;SDS011;41247;49.736;8.752;2023-02-23T13:45:39;10.70;;;6.35;;
55368;SDS011;41247;49.736;8.752;2023-02-23T13:49:36;10.10;;;6.03;;
55368;SDS011;41247;49.736;8.752;2023-02-23T13:53:42;10.90;;;5.70;;
55368;SDS011;41247;49.736;8.752;2023-02-23T13:57:25;10.95;;;5.47;;
55368;SDS011;41247;49.736;8.752;2023-02-23T14:01:08;7.88;;;4.90;;
55368;SDS011;41247;49.736;8.752;2023-02-23T14:09:17;7.82;;;4.88;;
55368;SDS011;41247;49.736;8.752;2023-02-23T14:17:09;14.63;;;5.40;;
55368;SDS011;41247;49.736;8.752;2023-02-23T14:20:57;15.82;;;6.30;;
55368;SDS011;41247;49.736;8.752;2023-02-23T14:24:41;11.10;;;6.28;;
55368;SDS011;41247;49.736;8.752;2023-02-23T14:35:51;12.45;;;6.70;;
55368;SDS011;41247;49.736;8.752;2023-02-23T14:39:33;11.88;;;6.70;;
55368;SDS011;41247;49.736;8.752;2023-02-23T14:43:31;12.23;;;6.97;;
55368;SDS011;41247;49.736;8.752;2023-02-23T14:47:19;17.27;;;8.23;;
55368;SDS011;41247;49.736;8.752;2023-02-23T14:51:24;11.70;;;7.32;;
55368;SDS011;41247;49.736;8.752;2023-02-23T14:55:25;13.48;;;7.65;;
55368;SDS011;41247;49.736;8.752;2023-02-23T14:59:13;12.90;;;7.88;;
55368;SDS011;41247;49.736;8.752;2023-02-23T15:03:04;15.23;;;7.95;;
55368;SDS011;41247;49.736;8.752;2023-02-23T15:06:47;12.13;;;7.55;;
55368;SDS011;41247;49.736;8.752;2023-02-23T15:10:38;14.07;;;7.55;;
55368;SDS011;41247;49.736;8.752;2023-02-23T15:14:21;12.73;;;8.23;;
55368;SDS011;41247;49.736;8.752;2023-02-23T15:18:03;13.60;;;8.80;;
55368;SDS011;41247;49.736;8.752;2023-02-23T15:21:54;13.65;;;7.85;;
55368;SDS011;41247;49.736;8.752;2023-02-23T15:25:38;12.30;;;8.18;;
55368;SDS011;41247;49.736;8.752;2023-02-23T15:29:20;16.42;;;7.82;;
55368;SDS011;41247;49.736;8.752;2023-02-23T15:33:11;13.25;;;7.78;;
55368;SDS011;41247;49.736;8.752;2023-02-23T15:36:58;14.65;;;7.80;;
55368;SDS011;41247;49.736;8.752;2023-02-23T15:40:42;11.68;;;7.57;;
55368;SDS011;41247;49.736;8.752;2023-02-23T15:44:23;12.48;;;7.10;;
55368;SDS011;41247;49.736;8.752;2023-02-23T15:48:12;11.60;;;7.75;;
55368;SDS011;41247;49.736;8.752;2023-02-23T15:52:01;13.20;;;7.30;;
55368;SDS011;41247;49.736;8.752;2023-02-23T15:55:46;14.25;;;8.10;;
55368;SDS011;41247;49.736;8.752;2023-02-23T15:59:27;12.65;;;7.85;;
55368;SDS011;41247;49.736;8.752;2023-02-23T16:03:30;12.55;;;7.95;;
55368;SDS011;41247;49.736;8.752;2023-02-23T16:07:17;14.18;;;9.20;;
55368;SDS011;41247;49.736;8.752;2023-02-23T16:11:08;14.98;;;8.52;;
55368;SDS011;41247;49.736;8.752;2023-02-23T16:14:55;22.33;;;11.77;;
55368;SDS011;41247;49.736;8.752;2023-02-23T16:18:40;26.30;;;13.13;;
55368;SDS011;41247;49.736;8.752;2023-02-23T16:22:24;25.10;;;11.00;;
55368;SDS011;41247;49.736;8.752;2023-02-23T16:26:07;16.17;;;9.93;;
55368;SDS011;41247;49.736;8.752;2023-02-23T16:33:56;11.93;;;8.02;;
55368;SDS011;41247;49.736;8.752;2023-02-23T16:37:56;13.98;;;8.52;;
55368;SDS011;41247;49.736;8.752;2023-02-23T16:45:22;21.60;;;13.43;;
55368;SDS011;41247;49.736;8.752;2023-02-23T16:49:02;18.15;;;9.80;;
55368;SDS011;41247;49.736;8.752;2023-02-23T16:52:44;16.25;;;9.82;;
55368;SDS011;41247;49.736;8.752;2023-02-23T16:56:26;15.77;;;9.80;;
55368;SDS011;41247;49.736;8.752;2023-02-23T17:00:07;14.98;;;8.80;;
55368;SDS011;41247;49.736;8.752;2023-02-23T17:03:55;12.55;;;8.27;;
55368;SDS011;41247;49.736;8.752;2023-02-23T17:07:38;13.35;;;8.65;;
55368;SDS011;41247;49.736;8.752;2023-02-23T17:11:19;14.05;;;8.45;;
55368;SDS011;41247;49.736;8.752;2023-02-23T17:15:01;13.50;;;8.23;;
55368;SDS011;41247;49.736;8.752;2023-02-23T17:18:42;13.43;;;8.20;;
55368;SDS011;41247;49.736;8.752;2023-02-23T17:22:22;12.05;;;8.63;;
55368;SDS011;41247;49.736;8.752;2023-02-23T17:26:10;11.95;;;7.75;;
55368;SDS011;41247;49.736;8.752;2023-02-23T17:29:51;13.25;;;8.48;;
55368;SDS011;41247;49.736;8.752;2023-02-23T17:33:31;16.48;;;9.55;;
55368;SDS011;41247;49.736;8.752;2023-02-23T17:37:12;14.60;;;9.02;;
55368;SDS011;41247;49.736;8.752;2023-02-23T17:40:52;17.60;;;9.73;;
55368;SDS011;41247;49.736;8.752;2023-02-23T17:44:33;16.00;;;9.80;;
55368;SDS011;41247;49.736;8.752;2023-02-23T17:48:14;17.00;;;10.02;;
55368;SDS011;41247;49.736;8.752;2023-02-23T17:51:54;20.63;;;11.30;;
55368;SDS011;41247;49.736;8.752;2023-02-23T17:55:35;21.65;;;12.23;;
55368;SDS011;41247;49.736;8.752;2023-02-23T17:59:15;24.15;;;11.27;;
55368;SDS011;41247;49.736;8.752;2023-02-23T18:02:56;19.55;;;11.25;;
55368;SDS011;41247;49.736;8.752;2023-02-23T18:06:37;22.30;;;12.02;;
55368;SDS011;41247;49.736;8.752;2023-02-23T18:10:17;25.23;;;12.73;;
55368;SDS011;41247;49.736;8.752;2023-02-23T18:13:58;23.08;;;12.60;;
55368;SDS011;41247;49.736;8.752;2023-02-23T18:17:40;26.05;;;12.77;;
55368;SDS011;41247;49.736;8.752;2023-02-23T18:21:20;24.90;;;12.68;;
55368;SDS011;41247;49.736;8.752;2023-02-23T18:25:01;28.10;;;13.65;;
55368;SDS011;41247;49.736;8.752;2023-02-23T18:28:42;32.10;;;15.15;;
55368;SDS011;41247;49.736;8.752;2023-02-23T18:32:23;34.13;;;15.45;;
55368;SDS011;41247;49.736;8.752;2023-02-23T18:36:12;37.17;;;16.60;;
55368;SDS011;41247;49.736;8.752;2023-02-23T18:40:03;33.53;;;16.70;;
55368;SDS011;41247;49.736;8.752;2023-02-23T18:43:44;34.70;;;17.90;;
55368;SDS011;41247;49.736;8.752;2023-02-23T18:47:25;33.75;;;17.05;;
55368;SDS011;41247;49.736;8.752;2023-02-23T18:51:06;36.20;;;18.10;;
55368;SDS011;41247;49.736;8.752;2023-02-23T18:54:47;37.90;;;18.45;;
55368;SDS011;41247;49.736;8.752;2023-02-23T18:58:28;34.08;;;18.13;;
55368;SDS011;41247;49.736;8.752;2023-02-23T19:02:09;35.67;;;17.15;;
55368;SDS011;41247;49.736;8.752;2023-02-23T19:05:49;37.70;;;18.50;;
55368;SDS011;41247;49.736;8.752;2023-02-23T19:09:30;35.38;;;17.20;;
55368;SDS011;41247;49.736;8.752;2023-02-23T19:13:11;35.13;;;19.15;;
55368;SDS011;41247;49.736;8.752;2023-02-23T19:16:51;34.67;;;17.65;;
55368;SDS011;41247;49.736;8.752;2023-02-23T19:20:32;39.88;;;19.98;;
55368;SDS011;41247;49.736;8.752;2023-02-23T19:24:12;36.92;;;18.55;;
55368;SDS011;41247;49.736;8.752;2023-02-23T19:27:53;42.63;;;19.50;;
55368;SDS011;41247;49.736;8.752;2023-02-23T19:31:34;38.58;;;18.88;;
55368;SDS011;41247;49.736;8.752;2023-02-23T19:35:14;39.22;;;18.60;;
55368;SDS011;41247;49.736;8.752;2023-02-23T19:38:56;38.58;;;18.98;;
55368;SDS011;41247;49.736;8.752;2023-02-23T19:42:38;40.07;;;19.80;;
55368;SDS011;41247;49.736;8.752;2023-02-23T19:46:19;42.67;;;19.45;;
55368;SDS011;41247;49.736;8.752;2023-02-23T19:49:59;42.17;;;21.60;;
55368;SDS011;41247;49.736;8.752;2023-02-23T19:53:40;42.90;;;20.88;;
55368;SDS011;41247;49.736;8.752;2023-02-23T19:57:21;40.60;;;21.45;;
55368;SDS011;41247;49.736;8.752;2023-02-23T20:01:02;39.83;;;19.88;;
55368;SDS011;41247;49.736;8.752;2023-02-23T20:04:48;38.22;;;19.92;;
55368;SDS011;41247;49.736;8.752;2023-02-23T20:08:29;40.33;;;20.55;;
55368;SDS011;41247;49.736;8.752;2023-02-23T20:12:10;42.75;;;21.58;;
55368;SDS011;41247;49.736;8.752;2023-02-23T20:19:45;39.28;;;20.70;;
55368;SDS011;41247;49.736;8.752;2023-02-23T20:23:26;42.13;;;21.40;;
55368;SDS011;41247;49.736;8.752;2023-02-23T20:27:07;47.42;;;22.95;;
55368;SDS011;41247;49.736;8.752;2023-02-23T20:30:47;44.25;;;21.67;;
55368;SDS011;41247;49.736;8.752;2023-02-23T20:34:28;43.78;;;21.65;;
55368;SDS011;41247;49.736;8.752;2023-02-23T20:38:08;39.45;;;20.92;;
55368;SDS011;41247;49.736;8.752;2023-02-23T20:41:49;43.55;;;21.38;;
55368;SDS011;41247;49.736;8.752;2023-02-23T20:45:30;44.08;;;21.10;;
55368;SDS011;41247;49.736;8.752;2023-02-23T20:49:11;42.53;;;20.80;;
55368;SDS011;41247;49.736;8.752;2023-02-23T20:52:52;40.17;;;19.67;;
55368;SDS011;41247;49.736;8.752;2023-02-23T20:56:33;37.28;;;19.08;;
55368;SDS011;41247;49.736;8.752;2023-02-23T21:00:14;41.67;;;19.38;;
55368;SDS011;41247;49.736;8.752;2023-02-23T21:03:57;44.38;;;20.13;;
55368;SDS011;41247;49.736;8.752;2023-02-23T21:07:39;44.08;;;21.60;;
55368;SDS011;41247;49.736;8.752;2023-02-23T21:11:20;41.28;;;21.58;;
55368;SDS011;41247;49.736;8.752;2023-02-23T21:15:03;43.43;;;22.47;;
55368;SDS011;41247;49.736;8.752;2023-02-23T21:18:44;42.88;;;22.35;;
55368;SDS011;41247;49.736;8.752;2023-02-23T21:22:25;47.78;;;23.60;;
55368;SDS011;41247;49.736;8.752;2023-02-23T21:26:05;55.33;;;27.00;;
55368;SDS011;41247;49.736;8.752;2023-02-23T21:29:46;53.78;;;26.15;;
55368;SDS011;41247;49.736;8.752;2023-02-23T21:33:27;49.78;;;25.58;;
55368;SDS011;41247;49.736;8.752;2023-02-23T21:37:07;56.22;;;26.98;;
55368;SDS011;41247;49.736;8.752;2023-02-23T21:40:48;62.47;;;28.77;;
55368;SDS011;41247;49.736;8.752;2023-02-23T21:44:29;59.28;;;28.25;;
55368;SDS011;41247;49.736;8.752;2023-02-23T21:48:09;48.75;;;24.88;;
55368;SDS011;41247;49.736;8.752;2023-02-23T21:51:50;55.78;;;27.80;;
55368;SDS011;41247;49.736;8.752;2023-02-23T21:55:31;52.67;;;25.42;;
55368;SDS011;41247;49.736;8.752;2023-02-23T21:59:12;53.35;;;26.08;;
55368;SDS011;41247;49.736;8.752;2023-02-23T22:02:52;53.38;;;25.75;;
55368;SDS011;41247;49.736;8.752;2023-02-23T22:06:34;51.38;;;25.30;;
55368;SDS011;41247;49.736;8.752;2023-02-23T22:10:18;55.33;;;26.08;;
55368;SDS011;41247;49.736;8.752;2023-02-23T22:14:02;53.78;;;26.40;;
55368;SDS011;41247;49.736;8.752;2023-02-23T22:17:44;50.85;;;25.02;;
55368;SDS011;41247;49.736;8.752;2023-02-23T22:21:24;53.85;;;26.60;;
55368;SDS011;41247;49.736;8.752;2023-02-23T22:25:06;52.50;;;25.67;;
55368;SDS011;41247;49.736;8.752;2023-02-23T22:28:47;58.95;;;27.40;;
55368;SDS011;41247;49.736;8.752;2023-02-23T22:32:27;57.38;;;26.77;;
55368;SDS011;41247;49.736;8.752;2023-02-23T22:36:09;53.60;;;26.02;;
55368;SDS011;41247;49.736;8.752;2023-02-23T22:39:53;51.75;;;26.10;;
55368;SDS011;41247;49.736;8.752;2023-02-23T22:43:33;51.08;;;25.55;;
55368;SDS011;41247;49.736;8.752;2023-02-23T22:47:14;50.72;;;25.13;;
55368;SDS011;41247;49.736;8.752;2023-02-23T22:50:55;48.50;;;24.33;;
55368;SDS011;41247;49.736;8.752;2023-02-23T22:54:36;55.58;;;25.02;;
55368;SDS011;41247;49.736;8.752;2023-02-23T22:58:17;50.65;;;23.70;;
55368;SDS011;41247;49.736;8.752;2023-02-23T23:01:57;48.75;;;23.58;;
55368;SDS011;41247;49.736;8.752;2023-02-23T23:05:38;50.95;;;23.60;;
55368;SDS011;41247;49.736;8.752;2023-02-23T23:09:18;50.28;;;22.75;;
55368;SDS011;41247;49.736;8.752;2023-02-23T23:12:59;55.17;;;23.80;;
55368;SDS011;41247;49.736;8.752;2023-02-23T23:16:40;54.28;;;23.98;;
55368;SDS011;41247;49.736;8.752;2023-02-23T23:20:21;55.20;;;25.17;;
55368;SDS011;41247;49.736;8.752;2023-02-23T23:24:02;59.45;;;25.10;;
55368;SDS011;41247;49.736;8.752;2023-02-23T23:27:44;58.28;;;25.27;;
55368;SDS011;41247;49.736;8.752;2023-02-23T23:31:26;63.35;;;25.92;;
55368;SDS011;41247;49.736;8.752;2023-02-23T23:35:08;64.70;;;26.03;;
55368;SDS011;41247;49.736;8.752;2023-02-23T23:38:49;61.75;;;25.50;;
55368;SDS011;41247;49.736;8.752;2023-02-23T23:42:30;61.65;;;24.75;;
55368;SDS011;41247;49.736;8.752;2023-02-23T23:46:18;61.78;;;26.60;;
55368;SDS011;41247;49.736;8.752;2023-02-23T23:50:02;62.63;;;25.70;;
55368;SDS011;41247;49.736;8.752;2023-02-23T23:53:44;66.43;;;26.17;;
55368;SDS011;41247;49.736;8.752;2023-02-23T23:57:25;68.35;;;27.50;;
